Time;durP1;ratioP1;P1;durP2;ratioP2;P2;SDS_P1;SDS_P2;PMS_P1;PMS_P2;Temp;Humidity;BMP_temperature;BMP_pressure;BME280_temperature;BME280_humidity;BME280_pressure;Samples;Min_cycle;Max_cycle;Signal;HPM_P1;HPM_P2
2020/12/27 00:01:08;;;;;;;4.00;3.28;;;8.90;55.20;;;;;;5093954;28;20036;-85
2020/12/27 00:03:39;;;;;;;5.80;3.42;;;9.00;55.20;;;;;;5093135;28;20119;-86
2020/12/27 00:06:07;;;;;;;3.10;2.70;;;9.00;54.90;;;;;;5076289;28;20127;-85
2020/12/27 00:08:39;;;;;;;4.47;3.60;;;8.90;54.60;;;;;;5093898;28;20044;-85
2020/12/27 00:11:06;;;;;;;4.97;3.63;;;8.90;54.20;;;;;;5092685;28;20036;-84
2020/12/27 00:13:32;;;;;;;4.53;3.50;;;8.90;54.20;;;;;;5092507;28;20407;-87
2020/12/27 00:15:58;;;;;;;4.18;3.13;;;8.90;54.00;;;;;;5093048;28;20056;-86
2020/12/27 00:18:24;;;;;;;4.40;3.50;;;8.80;53.50;;;;;;5093450;28;20097;-86
2020/12/27 00:20:50;;;;;;;5.57;3.90;;;8.80;53.20;;;;;;5093667;28;20097;-86
2020/12/27 00:23:16;;;;;;;5.80;3.90;;;8.80;53.00;;;;;;5092156;28;20039;-86
2020/12/27 00:25:45;;;;;;;5.57;4.28;;;8.80;53.60;;;;;;5075175;28;20070;-84
2020/12/27 00:28:13;;;;;;;6.15;4.40;;;8.80;52.70;;;;;;5075876;28;20036;-85
2020/12/27 00:30:42;;;;;;;6.70;4.88;;;8.70;52.10;;;;;;5092837;28;20048;-85
2020/12/27 00:33:09;;;;;;;6.35;4.68;;;8.60;52.10;;;;;;5093261;28;20541;-86
2020/12/27 00:35:37;;;;;;;6.10;4.57;;;8.70;52.30;;;;;;5075748;28;20491;-86
2020/12/27 00:38:03;;;;;;;7.13;5.45;;;8.70;52.00;;;;;;5093332;28;20556;-85
2020/12/27 00:40:32;;;;;;;6.25;5.20;;;8.60;51.50;;;;;;5091996;28;20032;-85
2020/12/27 00:43:00;;;;;;;6.38;4.65;;;8.60;52.00;;;;;;5091861;28;20039;-86
2020/12/27 00:45:28;;;;;;;8.35;5.55;;;8.60;51.30;;;;;;5091882;28;20032;-85
2020/12/27 00:48:01;;;;;;;7.93;5.65;;;8.50;51.20;;;;;;5093143;28;20040;-84
2020/12/27 00:50:27;;;;;;;8.00;5.60;;;8.50;51.10;;;;;;5092537;28;20035;-83
2020/12/27 00:52:55;;;;;;;7.95;5.50;;;8.50;51.10;;;;;;5091921;28;20089;-82
2020/12/27 00:55:24;;;;;;;8.23;5.60;;;8.50;51.10;;;;;;5093129;28;20131;-85
2020/12/27 00:57:50;;;;;;;8.63;5.85;;;8.50;51.00;;;;;;5058254;28;20084;-82
2020/12/27 01:00:16;;;;;;;9.30;6.20;;;8.40;50.60;;;;;;5093638;28;20088;-85
2020/12/27 01:02:49;;;;;;;7.93;5.68;;;8.40;50.80;;;;;;5092471;28;20490;-83
2020/12/27 01:05:27;;;;;;;8.55;6.13;;;8.40;50.90;;;;;;5092891;28;20028;-85
2020/12/27 01:07:57;;;;;;;9.88;6.63;;;8.40;50.80;;;;;;5075455;28;20032;-84
2020/12/27 01:10:23;;;;;;;9.35;6.35;;;8.40;50.70;;;;;;5091390;28;20032;-85
2020/12/27 01:12:50;;;;;;;6.82;5.57;;;8.40;50.70;;;;;;5091811;28;20032;-82
2020/12/27 01:15:18;;;;;;;8.52;6.20;;;8.30;50.50;;;;;;5091176;28;20052;-82
2020/12/27 01:18:05;;;;;;;;;;;8.30;50.50;;;;;;5092708;28;20511;-82
2020/12/27 01:20:33;;;;;;;8.98;6.18;;;8.30;50.30;;;;;;5091733;28;19912;-81
2020/12/27 01:23:00;;;;;;;8.02;6.38;;;8.30;50.50;;;;;;5074981;28;20074;-82
2020/12/27 01:25:32;;;;;;;8.57;5.95;;;8.30;50.40;;;;;;5091843;28;20039;-82
2020/12/27 01:27:58;;;;;;;9.95;5.55;;;8.30;50.20;;;;;;5091859;28;20145;-80
2020/12/27 01:30:24;;;;;;;8.40;5.97;;;8.20;50.00;;;;;;5075518;28;20101;-81
2020/12/27 01:32:57;;;;;;;9.35;6.40;;;8.20;50.20;;;;;;5092113;28;20475;-82
2020/12/27 01:35:23;;;;;;;8.23;5.55;;;8.20;50.10;;;;;;5091415;28;20044;-79
2020/12/27 01:37:49;;;;;;;8.60;6.03;;;8.20;50.10;;;;;;5091599;28;20028;-81
2020/12/27 01:40:15;;;;;;;9.00;6.35;;;8.10;50.00;;;;;;5091595;28;20407;-81
2020/12/27 01:42:53;;;;;;;8.98;5.95;;;8.10;50.10;;;;;;5091435;28;20479;-81
2020/12/27 01:45:21;;;;;;;10.57;6.20;;;8.10;50.00;;;;;;5091119;28;20064;-85
2020/12/27 01:48:15;;;;;;;7.88;5.82;;;8.10;49.90;;;;;;5076930;28;20402;-85
2020/12/27 01:50:52;;;;;;;8.68;6.03;;;8.10;50.00;;;;;;5091402;28;20552;-86
2020/12/27 01:53:44;;;;;;;7.88;5.78;;;8.00;50.20;;;;;;5076851;28;20044;-86
2020/12/27 01:56:28;;;;;;;9.75;5.85;;;8.10;50.20;;;;;;5060611;28;20127;-84
2020/12/27 01:59:02;;;;;;;8.20;5.78;;;8.00;50.10;;;;;;5057893;28;20074;-85
2020/12/27 02:01:28;;;;;;;7.53;5.40;;;8.00;50.30;;;;;;5074918;28;20126;-84
2020/12/27 02:04:06;;;;;;;9.32;6.38;;;8.00;50.40;;;;;;5094932;28;20028;-82
2020/12/27 02:06:40;;;;;;;10.10;6.63;;;8.00;50.30;;;;;;5079136;28;20047;-81
2020/12/27 02:09:17;;;;;;;9.70;6.50;;;8.00;50.40;;;;;;5079846;28;20036;-81
2020/12/27 02:12:15;;;;;;;8.50;6.28;;;8.00;50.60;;;;;;5079106;28;20068;-81
2020/12/27 02:14:51;;;;;;;9.25;6.45;;;8.00;50.70;;;;;;5079082;28;20112;-83
2020/12/27 02:17:20;;;;;;;8.18;5.75;;;8.00;50.50;;;;;;5078844;28;20043;-82
2020/12/27 02:20:14;;;;;;;9.55;5.97;;;8.00;50.70;;;;;;5068975;28;20039;-81
2020/12/27 02:22:48;;;;;;;8.88;5.75;;;8.00;50.70;;;;;;5094553;28;20429;-80
2020/12/27 02:25:20;;;;;;;7.47;5.63;;;8.00;50.80;;;;;;5095631;28;20036;-80
2020/12/27 02:27:55;;;;;;;8.18;5.30;;;8.00;50.70;;;;;;5094404;28;20048;-80
2020/12/27 02:30:21;;;;;;;7.13;5.90;;;7.90;50.70;;;;;;5094392;28;20546;-79
2020/12/27 02:32:49;;;;;;;8.63;6.13;;;7.90;50.80;;;;;;5094850;28;20039;-80
2020/12/27 02:35:15;;;;;;;8.75;5.97;;;7.90;50.70;;;;;;5094437;28;20046;-81
2020/12/27 02:37:42;;;;;;;9.93;6.80;;;7.90;50.80;;;;;;5095505;28;20032;-82
2020/12/27 02:40:15;;;;;;;9.05;6.22;;;7.90;50.90;;;;;;5093976;28;20028;-83
2020/12/27 02:43:14;;;;;;;8.75;6.13;;;7.90;51.00;;;;;;5087290;28;20044;-81
2020/12/27 02:45:44;;;;;;;7.80;6.00;;;7.90;50.90;;;;;;5094235;28;20028;-81
2020/12/27 02:48:29;;;;;;;9.95;5.82;;;7.80;51.00;;;;;;5095543;28;20101;-85
2020/12/27 02:51:00;;;;;;;9.38;5.95;;;7.90;51.00;;;;;;5094193;28;20036;-83
2020/12/27 02:53:27;;;;;;;9.43;6.72;;;7.80;50.90;;;;;;5095364;28;20036;-84
2020/12/27 02:55:54;;;;;;;8.75;5.97;;;7.80;51.00;;;;;;5094386;28;20036;-84
2020/12/27 02:58:20;;;;;;;8.77;5.85;;;7.80;51.10;;;;;;5094753;28;20072;-83
2020/12/27 03:00:51;;;;;;;10.00;6.22;;;7.80;51.20;;;;;;5077746;28;20039;-84
2020/12/27 03:03:35;;;;;;;8.93;6.30;;;7.80;50.90;;;;;;5093884;28;20043;-86
2020/12/27 03:06:14;;;;;;;8.05;6.05;;;7.80;51.00;;;;;;5093847;28;20487;-86
2020/12/27 03:08:54;;;;;;;10.13;6.43;;;7.80;51.10;;;;;;5077609;28;20078;-86
2020/12/27 03:11:46;;;;;;;10.70;6.80;;;7.80;51.00;;;;;;5094031;28;20031;-86
2020/12/27 03:14:27;;;;;;;10.43;6.70;;;7.70;51.00;;;;;;5091813;28;20082;-86
2020/12/27 03:17:20;;;;;;;8.93;6.82;;;7.80;51.10;;;;;;5094970;28;20086;-86
2020/12/27 03:20:30;;;;;;;;;;;;;;;;;;;;;
2020/12/27 03:23:24;;;;;;;8.10;5.90;;;7.70;50.90;;;;;;5094177;28;20530;-85
2020/12/27 03:26:00;;;;;;;9.07;6.35;;;7.70;51.10;;;;;;5077914;28;20039;-85
2020/12/27 03:28:29;;;;;;;11.90;7.35;;;7.70;51.00;;;;;;5060742;28;20032;-86
2020/12/27 03:30:59;;;;;;;9.57;6.40;;;7.60;51.00;;;;;;5061174;28;20127;-86
2020/12/27 03:33:41;;;;;;;7.93;6.03;;;7.60;50.90;;;;;;5094765;28;20036;-85
2020/12/27 03:36:13;;;;;;;9.20;6.72;;;7.70;51.10;;;;;;5077032;28;20391;-86
2020/12/27 03:38:51;;;;;;;7.60;6.38;;;7.70;50.90;;;;;;5077470;28;20032;-85
2020/12/27 03:41:50;;;;;;;9.02;6.38;;;7.70;50.60;;;;;;5047957;28;20044;-86
2020/12/27 03:44:37;;;;;;;7.68;5.78;;;7.70;50.90;;;;;;5063525;28;20067;-84
2020/12/27 03:47:22;;;;;;;9.02;6.50;;;7.70;50.90;;;;;;5095153;28;20085;-82
2020/12/27 03:49:57;;;;;;;7.50;5.60;;;7.60;50.70;;;;;;5093351;28;20499;-81
2020/12/27 03:52:35;;;;;;;8.27;5.57;;;7.60;50.90;;;;;;5092922;28;20044;-81
2020/12/27 03:55:15;;;;;;;7.43;5.55;;;7.60;50.80;;;;;;5092519;28;20040;-80
2020/12/27 03:58:01;;;;;;;9.23;6.15;;;7.60;50.70;;;;;;5086406;28;20498;-81
2020/12/27 04:00:43;;;;;;;8.05;6.05;;;7.60;50.70;;;;;;5093261;28;20040;-82
2020/12/27 04:03:21;;;;;;;7.43;5.72;;;7.60;50.80;;;;;;5092819;28;20560;-80
2020/12/27 04:05:49;;;;;;;8.38;5.82;;;7.60;50.50;;;;;;5092625;28;20550;-81
2020/12/27 04:08:19;;;;;;;7.45;5.38;;;7.60;50.50;;;;;;5092578;28;20028;-82
2020/12/27 04:10:47;;;;;;;7.57;5.82;;;7.60;50.60;;;;;;5075737;28;20032;-82
2020/12/27 04:13:15;;;;;;;8.18;6.50;;;7.60;50.60;;;;;;5092517;28;20040;-80
2020/12/27 04:15:46;;;;;;;9.00;6.40;;;7.60;50.60;;;;;;5092484;28;20121;-80
2020/12/27 04:18:19;;;;;;;9.07;6.82;;;7.50;50.50;;;;;;5092290;28;20036;-81
2020/12/27 04:21:03;;;;;;;7.72;5.63;;;7.50;50.60;;;;;;5093895;28;20039;-82
2020/12/27 04:23:30;;;;;;;9.50;6.30;;;7.50;50.70;;;;;;5075760;28;20050;-81
2020/12/27 04:25:57;;;;;;;8.30;5.68;;;7.50;50.50;;;;;;5091943;28;20090;-82
2020/12/27 04:28:23;;;;;;;8.38;5.85;;;7.50;50.50;;;;;;5092141;28;20043;-86
2020/12/27 04:30:49;;;;;;;9.48;6.18;;;7.50;50.70;;;;;;5093220;28;20047;-83
2020/12/27 04:33:35;;;;;;;9.13;5.80;;;7.50;50.60;;;;;;5093004;28;20051;-82
2020/12/27 04:36:19;;;;;;;9.25;5.95;;;7.40;50.60;;;;;;5092204;28;20134;-82
2020/12/27 04:38:47;;;;;;;8.00;6.25;;;7.50;50.60;;;;;;5092092;28;20562;-82
2020/12/27 04:41:17;;;;;;;7.40;6.00;;;7.50;50.50;;;;;;5091833;28;20042;-82
2020/12/27 04:43:49;;;;;;;7.95;6.00;;;7.40;50.20;;;;;;5091744;28;20514;-83
2020/12/27 04:46:16;;;;;;;7.65;5.47;;;7.40;50.40;;;;;;5091968;28;20039;-84
2020/12/27 04:48:49;;;;;;;8.80;6.13;;;7.40;50.50;;;;;;5092674;28;20036;-84
2020/12/27 04:51:25;;;;;;;9.57;6.57;;;7.40;50.30;;;;;;5076201;28;20034;-84
2020/12/27 04:54:05;;;;;;;7.93;6.03;;;7.30;50.20;;;;;;5091787;28;20491;-84
2020/12/27 04:56:47;;;;;;;9.30;6.35;;;7.40;51.00;;;;;;5091874;28;20058;-83
2020/12/27 04:59:19;;;;;;;9.85;6.47;;;7.40;50.30;;;;;;5092370;28;20491;-83
2020/12/27 05:01:49;;;;;;;8.32;6.38;;;7.40;50.30;;;;;;5091831;28;20062;-84
2020/12/27 05:04:24;;;;;;;8.32;6.40;;;7.40;50.20;;;;;;5092061;28;20043;-84
2020/12/27 05:07:01;;;;;;;9.52;6.10;;;7.40;50.30;;;;;;5091776;28;20612;-84
2020/12/27 05:09:53;;;;;;;7.50;5.53;;;7.40;50.10;;;;;;5092682;28;20510;-83
2020/12/27 05:12:20;;;;;;;7.80;5.63;;;7.30;50.00;;;;;;5091338;28;20406;-83
2020/12/27 05:14:46;;;;;;;8.10;5.75;;;7.30;50.10;;;;;;5057784;28;20048;-83
2020/12/27 05:17:14;;;;;;;9.13;6.85;;;7.30;49.90;;;;;;5091839;28;20036;-83
2020/12/27 05:19:53;;;;;;;9.38;6.65;;;7.30;50.00;;;;;;5077012;28;20119;-85
2020/12/27 05:22:21;;;;;;;9.63;6.07;;;7.30;49.80;;;;;;5091438;28;20032;-85
2020/12/27 05:25:15;;;;;;;9.20;6.50;;;7.30;49.90;;;;;;5089492;28;20044;-85
2020/12/27 05:28:06;;;;;;;8.35;5.88;;;7.30;49.70;;;;;;5093218;28;20063;-85
2020/12/27 05:30:52;;;;;;;9.07;6.60;;;7.30;49.40;;;;;;5092482;28;20044;-80
2020/12/27 05:33:39;;;;;;;8.32;6.10;;;7.30;49.70;;;;;;5091907;28;20078;-80
2020/12/27 05:36:34;;;;;;;9.13;6.40;;;7.20;49.50;;;;;;5093430;28;20047;-81
2020/12/27 05:39:20;;;;;;;6.68;5.10;;;7.20;49.50;;;;;;5096430;28;20097;-83
2020/12/27 05:42:06;;;;;;;6.50;5.50;;;7.20;49.50;;;;;;5096786;28;20040;-84
2020/12/27 05:44:37;;;;;;;7.50;5.75;;;7.20;49.30;;;;;;5078566;28;20505;-82
2020/12/27 05:47:04;;;;;;;7.88;5.63;;;7.20;49.30;;;;;;5095269;28;20123;-84
2020/12/27 05:49:32;;;;;;;7.32;5.53;;;7.20;49.20;;;;;;5095004;28;20123;-83
2020/12/27 05:52:17;;;;;;;6.55;4.97;;;7.20;49.30;;;;;;5095853;28;20085;-83
2020/12/27 05:55:04;;;;;;;8.85;6.47;;;7.20;49.20;;;;;;5095357;28;20040;-83
2020/12/27 05:57:42;;;;;;;7.65;5.72;;;7.20;49.30;;;;;;5095334;28;20147;-80
2020/12/27 06:00:10;;;;;;;9.05;6.25;;;7.20;49.20;;;;;;5095192;28;20519;-79
2020/12/27 06:02:41;;;;;;;8.50;6.07;;;7.20;49.30;;;;;;5095397;28;20517;-79
2020/12/27 06:05:50;;;;;;;8.05;6.07;;;7.20;49.20;;;;;;5094583;28;20135;-79
2020/12/27 06:08:28;;;;;;;7.65;6.00;;;7.20;49.30;;;;;;5095314;28;20517;-78
2020/12/27 06:11:33;;;;;;;8.07;6.07;;;7.10;49.20;;;;;;5094395;28;20032;-79
2020/12/27 06:14:16;;;;;;;9.80;5.97;;;7.10;49.10;;;;;;5094382;28;20028;-78
2020/12/27 06:17:14;;;;;;;8.98;6.05;;;7.10;49.50;;;;;;5089240;28;20086;-80
2020/12/27 06:20:00;;;;;;;8.73;6.18;;;7.00;49.50;;;;;;5095881;28;20047;-80
2020/12/27 06:22:33;;;;;;;9.00;6.57;;;7.00;49.80;;;;;;5078600;28;20039;-78
2020/12/27 06:25:24;;;;;;;8.93;5.72;;;6.90;50.60;;;;;;5075917;28;20067;-78
2020/12/27 06:27:54;;;;;;;11.68;6.95;;;7.00;52.30;;;;;;5094218;28;20032;-77
2020/12/27 06:30:23;;;;;;;9.88;6.30;;;7.00;53.10;;;;;;5094152;28;20028;-77
2020/12/27 06:33:20;;;;;;;7.85;5.25;;;7.00;53.40;;;;;;5096236;28;20395;-77
2020/12/27 06:35:47;;;;;;;9.57;5.78;;;7.00;54.20;;;;;;5095605;28;20044;-81
2020/12/27 06:38:23;;;;;;;7.25;5.70;;;7.00;54.50;;;;;;5094174;28;20040;-80
2020/12/27 06:41:06;;;;;;;10.73;5.97;;;7.10;54.80;;;;;;5094283;28;20131;-80
2020/12/27 06:43:51;;;;;;;7.75;5.53;;;7.00;54.80;;;;;;5094959;28;20036;-79
2020/12/27 06:46:28;;;;;;;7.72;5.63;;;7.10;55.00;;;;;;5078554;28;20040;-79
2020/12/27 06:49:10;;;;;;;7.60;5.85;;;7.10;54.90;;;;;;5078797;28;20483;-80
2020/12/27 06:51:55;;;;;;;8.75;4.72;;;7.10;55.00;;;;;;5095154;28;20050;-81
2020/12/27 06:54:50;;;;;;;7.35;5.47;;;7.10;55.10;;;;;;5094108;28;20425;-84
2020/12/27 06:57:47;;;;;;;9.52;6.22;;;7.10;55.60;;;;;;5093812;28;20032;-82
2020/12/27 07:00:30;;;;;;;7.55;5.57;;;7.10;55.20;;;;;;5077916;28;20434;-84
2020/12/27 07:03:21;;;;;;;7.82;5.00;;;7.20;55.20;;;;;;5094099;28;20157;-85
2020/12/27 07:05:48;;;;;;;8.18;5.75;;;7.20;55.00;;;;;;5093869;28;20097;-87
2020/12/27 07:08:41;;;;;;;7.28;5.20;;;7.20;54.90;;;;;;5076492;28;20043;-87
2020/12/27 07:11:07;;;;;;;6.57;5.20;;;7.20;54.70;;;;;;5093946;28;20421;-82
2020/12/27 07:13:48;;;;;;;6.90;5.25;;;7.10;54.20;;;;;;5094800;28;20544;-82
2020/12/27 07:16:17;;;;;;;9.07;5.28;;;7.20;54.10;;;;;;5094978;28;20072;-86
2020/12/27 07:18:48;;;;;;;6.80;5.00;;;7.20;54.50;;;;;;5094700;28;20556;-86
2020/12/27 07:21:23;;;;;;;8.35;5.82;;;7.20;54.50;;;;;;5097919;28;20035;-79
2020/12/27 07:24:08;;;;;;;8.20;5.47;;;7.30;54.60;;;;;;5094583;28;20036;-80
2020/12/27 07:26:45;;;;;;;9.30;5.65;;;7.30;55.00;;;;;;5076348;28;20126;-85
2020/12/27 07:29:22;;;;;;;10.32;5.68;;;7.40;55.20;;;;;;5093816;28;20040;-83
2020/12/27 07:31:53;;;;;;;14.05;6.20;;;7.50;55.20;;;;;;5094581;28;20111;-82
2020/12/27 07:34:27;;;;;;;10.75;6.28;;;7.60;55.10;;;;;;5077265;28;20445;-83
2020/12/27 07:37:04;;;;;;;7.95;5.55;;;7.70;54.90;;;;;;5077067;28;20106;-80
2020/12/27 07:39:57;;;;;;;9.32;6.00;;;7.80;54.70;;;;;;5059972;28;20068;-81
2020/12/27 07:42:28;;;;;;;8.25;6.00;;;7.90;54.40;;;;;;5094193;28;20066;-83
2020/12/27 07:45:01;;;;;;;9.95;5.90;;;7.90;54.20;;;;;;5093428;28;20481;-82
2020/12/27 07:47:29;;;;;;;9.93;6.05;;;8.00;54.10;;;;;;5092907;28;20036;-83
2020/12/27 07:50:16;;;;;;;11.55;6.57;;;8.10;54.00;;;;;;5092742;28;20452;-83
2020/12/27 07:52:59;;;;;;;;;;;8.20;54.10;;;;;;5093266;28;20024;-88
2020/12/27 07:55:49;;;;;;;;;;;;;;;;;;;;;
2020/12/27 07:58:27;;;;;;;11.05;5.28;;;8.30;54.30;;;;;;5093646;28;20035;-86
2020/12/27 08:00:53;;;;;;;7.60;5.80;;;8.40;54.20;;;;;;5091835;28;20081;-85
2020/12/27 08:03:22;;;;;;;10.10;5.47;;;8.40;54.50;;;;;;5093714;28;20028;-84
2020/12/27 08:05:59;;;;;;;10.45;5.65;;;8.50;54.50;;;;;;5076274;28;20048;-88
2020/12/27 08:08:26;;;;;;;10.38;6.32;;;8.50;54.20;;;;;;5093372;28;20081;-85
2020/12/27 08:10:58;;;;;;;8.80;5.85;;;8.60;53.80;;;;;;5093600;28;20036;-84
2020/12/27 08:13:24;;;;;;;7.90;5.15;;;8.60;53.80;;;;;;5092967;28;20082;-85
2020/12/27 08:15:50;;;;;;;10.52;6.28;;;8.70;53.80;;;;;;5092053;28;20079;-84
2020/12/27 08:18:17;;;;;;;9.70;5.32;;;8.70;53.50;;;;;;5093274;28;20086;-80
2020/12/27 08:20:49;;;;;;;10.07;5.80;;;8.70;53.70;;;;;;5093512;28;20406;-79
2020/12/27 08:23:16;;;;;;;12.68;5.63;;;8.70;53.90;;;;;;5091915;28;20063;-79
2020/12/27 08:25:43;;;;;;;12.93;5.97;;;8.70;54.10;;;;;;5091907;28;20028;-78
2020/12/27 08:28:15;;;;;;;12.88;4.93;;;8.70;54.60;;;;;;5093475;28;20483;-80
2020/12/27 08:30:41;;;;;;;14.88;6.18;;;8.70;53.80;;;;;;5075060;28;20502;-78
2020/12/27 08:33:09;;;;;;;10.10;5.25;;;8.80;53.90;;;;;;5093282;28;20032;-79
2020/12/27 08:35:36;;;;;;;17.13;6.13;;;8.80;53.90;;;;;;5092145;28;20134;-80
2020/12/27 08:38:18;;;;;;;11.52;5.53;;;8.80;54.30;;;;;;5075834;28;20016;-77
2020/12/27 08:40:47;;;;;;;11.52;4.78;;;8.80;54.70;;;;;;5093066;28;20032;-79
2020/12/27 08:43:45;;;;;;;13.30;5.47;;;8.90;55.20;;;;;;5092134;28;20036;-78
2020/12/27 08:46:13;;;;;;;10.43;5.57;;;8.90;55.60;;;;;;5092717;28;20070;-79
2020/12/27 08:48:47;;;;;;;13.98;6.28;;;8.90;55.90;;;;;;5092812;28;20478;-81
2020/12/27 08:51:13;;;;;;;11.27;5.57;;;8.90;55.90;;;;;;5091881;28;20086;-81
2020/12/27 08:53:44;;;;;;;10.95;5.65;;;8.90;55.90;;;;;;5091806;28;20040;-82
2020/12/27 08:56:11;;;;;;;10.48;6.05;;;8.90;55.80;;;;;;5092802;28;20044;-82
2020/12/27 08:58:37;;;;;;;13.52;5.53;;;8.90;55.70;;;;;;5075054;28;20059;-79
2020/12/27 09:01:21;;;;;;;10.07;5.35;;;8.90;55.70;;;;;;5093047;28;20035;-82
2020/12/27 09:03:47;;;;;;;9.93;6.93;;;9.00;55.70;;;;;;5093118;28;20040;-79
2020/12/27 09:06:13;;;;;;;9.35;5.60;;;9.00;55.90;;;;;;5091376;28;20104;-78
2020/12/27 09:08:39;;;;;;;9.27;5.25;;;9.00;55.80;;;;;;5092682;28;20568;-79
2020/12/27 09:11:05;;;;;;;11.05;5.82;;;9.10;55.80;;;;;;5092284;28;20090;-79
2020/12/27 09:13:41;;;;;;;9.88;5.65;;;9.10;55.70;;;;;;5092386;28;20028;-78
2020/12/27 09:16:07;;;;;;;;;;;9.10;55.50;;;;;;5074912;28;20050;-79
2020/12/27 09:18:37;;;;;;;8.02;5.15;;;9.10;55.40;;;;;;5091456;28;19998;-79
2020/12/27 09:21:06;;;;;;;6.57;5.15;;;9.10;55.40;;;;;;5091305;28;20036;-79
2020/12/27 09:23:33;;;;;;;7.63;5.20;;;9.20;55.30;;;;;;5074698;28;20126;-81
2020/12/27 09:26:10;;;;;;;9.00;5.13;;;9.10;55.20;;;;;;5092325;28;20553;-81
2020/12/27 09:28:38;;;;;;;7.78;5.38;;;9.10;55.10;;;;;;5091373;28;20043;-81
2020/12/27 09:31:12;;;;;;;9.27;5.47;;;9.10;55.00;;;;;;5092393;28;20054;-81
2020/12/27 09:33:47;;;;;;;9.60;5.70;;;9.10;54.70;;;;;;5092213;28;20050;-79
2020/12/27 09:36:15;;;;;;;7.43;5.40;;;9.10;54.30;;;;;;5092403;28;20078;-82
2020/12/27 09:38:45;;;;;;;7.60;5.30;;;9.10;54.30;;;;;;5091156;28;20122;-80
2020/12/27 09:41:24;;;;;;;7.88;5.35;;;9.00;54.10;;;;;;5092174;28;20039;-79
2020/12/27 09:43:59;;;;;;;7.88;5.50;;;9.00;53.80;;;;;;5074610;28;20048;-81
2020/12/27 09:46:46;;;;;;;7.90;5.45;;;9.00;53.60;;;;;;5092239;28;20077;-81
2020/12/27 09:49:26;;;;;;;9.35;5.40;;;8.90;53.60;;;;;;5092226;28;20135;-80
2020/12/27 09:52:13;;;;;;;7.65;5.70;;;8.90;53.80;;;;;;5092184;28;20035;-80
2020/12/27 09:54:43;;;;;;;7.70;5.10;;;8.90;53.80;;;;;;5090912;28;20043;-80
2020/12/27 09:57:16;;;;;;;7.07;5.13;;;8.80;54.00;;;;;;5091055;28;20415;-81
2020/12/27 09:59:44;;;;;;;9.23;5.78;;;8.80;54.00;;;;;;5092966;28;20032;-79
2020/12/27 10:02:10;;;;;;;8.10;5.57;;;8.80;54.00;;;;;;5090361;28;20044;-80
2020/12/27 10:04:38;;;;;;;8.10;5.03;;;8.80;54.00;;;;;;5090860;28;20525;-80
2020/12/27 10:07:05;;;;;;;8.65;5.45;;;8.80;54.20;;;;;;5092111;28;20136;-79
2020/12/27 10:09:33;;;;;;;8.68;5.38;;;8.80;54.10;;;;;;5090582;28;20081;-79
2020/12/27 10:11:59;;;;;;;7.65;5.38;;;8.80;54.00;;;;;;5091966;28;20416;-80
2020/12/27 10:14:25;;;;;;;6.95;5.03;;;8.70;53.80;;;;;;5091974;28;20111;-80
2020/12/27 10:16:51;;;;;;;6.18;4.93;;;8.70;53.80;;;;;;5091839;28;20229;-80
2020/12/27 10:19:16;;;;;;;8.55;5.35;;;8.70;53.80;;;;;;5092036;28;20078;-82
2020/12/27 10:21:47;;;;;;;7.80;5.70;;;8.60;53.70;;;;;;5090611;28;20036;-79
2020/12/27 10:24:13;;;;;;;8.40;5.10;;;8.60;53.90;;;;;;5094310;28;20054;-80
2020/12/27 10:26:39;;;;;;;6.88;5.32;;;8.60;53.90;;;;;;5094449;28;20047;-82
2020/12/27 10:29:06;;;;;;;7.22;5.90;;;8.60;53.70;;;;;;5094356;28;20038;-79
2020/12/27 10:31:32;;;;;;;6.95;5.57;;;8.60;53.40;;;;;;5094300;28;20035;-82
2020/12/27 10:33:59;;;;;;;8.15;6.00;;;8.50;53.00;;;;;;5094696;28;20051;-80
2020/12/27 10:36:26;;;;;;;10.00;5.75;;;8.50;52.90;;;;;;5094300;28;20089;-81
2020/12/27 10:38:53;;;;;;;6.32;5.15;;;8.50;52.70;;;;;;5095420;28;20117;-81
2020/12/27 10:41:20;;;;;;;9.68;6.30;;;8.40;52.30;;;;;;5093960;28;20020;-81
